Time;durP1;ratioP1;P1;durP2;ratioP2;P2;SDS_P1;SDS_P2;PMS_P1;PMS_P2;Temp;Humidity;BMP_temperature;BMP_pressure;BME280_temperature;BME280_humidity;BME280_pressure;Samples;Min_cycle;Max_cycle;Signal;HPM_P1;HPM_P2
2023/05/25 00:00:09;;;;;;;7.53;7.33;;;8.90;99.90;;;;;;5035153;28;20522;-68
2023/05/25 00:02:36;;;;;;;7.67;7.47;;;8.80;99.90;;;;;;5040219;28;20497;-67
2023/05/25 00:05:03;;;;;;;7.80;7.60;;;8.70;99.90;;;;;;5036668;28;20471;-68
2023/05/25 00:07:32;;;;;;;8.20;7.90;;;8.60;99.90;;;;;;5039121;28;20461;-67
2023/05/25 00:09:59;;;;;;;7.67;7.47;;;8.60;99.90;;;;;;5041210;28;20466;-67
2023/05/25 00:12:30;;;;;;;8.27;7.97;;;8.50;99.90;;;;;;5035549;28;20484;-67
2023/05/25 00:14:57;;;;;;;7.87;7.63;;;8.50;99.90;;;;;;5038391;28;20833;-68
2023/05/25 00:17:30;;;;;;;8.10;7.80;;;8.50;99.90;;;;;;5039845;28;20526;-67
2023/05/25 00:20:06;;;;;;;8.53;8.23;;;8.40;99.90;;;;;;5048529;28;20499;-67
2023/05/25 00:22:33;;;;;;;7.87;7.63;;;8.40;99.90;;;;;;5032146;28;20480;-67
2023/05/25 00:25:00;;;;;;;8.93;8.50;;;8.30;99.90;;;;;;5045189;28;20538;-66
2023/05/25 00:27:29;;;;;;;9.07;8.77;;;8.30;99.90;;;;;;5036870;28;20511;-67
2023/05/25 00:29:56;;;;;;;8.97;8.67;;;8.30;99.90;;;;;;5048384;28;20464;-67
2023/05/25 00:32:22;;;;;;;8.97;8.67;;;8.20;99.90;;;;;;5043383;28;20629;-67
2023/05/25 00:34:49;;;;;;;8.97;8.67;;;8.20;99.90;;;;;;5042080;28;20521;-68
2023/05/25 00:37:17;;;;;;;9.10;8.80;;;8.10;99.90;;;;;;5044056;28;20514;-66
2023/05/25 00:39:45;;;;;;;9.27;8.97;;;8.00;99.90;;;;;;5044514;28;20821;-67
2023/05/25 00:42:12;;;;;;;9.27;8.97;;;7.90;99.90;;;;;;5031739;28;21025;-67
2023/05/25 00:44:40;;;;;;;9.37;9.07;;;7.90;99.90;;;;;;5039383;28;21324;-67
2023/05/25 00:47:07;;;;;;;9.57;9.27;;;7.90;99.90;;;;;;5038562;28;20487;-67
2023/05/25 00:49:36;;;;;;;9.70;9.40;;;7.80;99.90;;;;;;5045475;28;20833;-67
2023/05/25 00:52:04;;;;;;;10.10;9.70;;;7.80;99.90;;;;;;5037572;28;20579;-67
2023/05/25 00:54:32;;;;;;;9.47;9.17;;;7.70;99.90;;;;;;5039088;28;20862;-67
2023/05/25 00:57:02;;;;;;;9.90;9.60;;;7.70;99.90;;;;;;5028940;28;20493;-68
2023/05/25 00:59:34;;;;;;;10.30;9.90;;;7.70;99.90;;;;;;5040870;28;21032;-67
2023/05/25 01:02:07;;;;;;;10.53;10.13;;;7.70;99.90;;;;;;5035415;28;20456;-68
2023/05/25 01:04:37;;;;;;;10.70;10.30;;;7.70;99.90;;;;;;5041426;28;20464;-67
2023/05/25 01:07:06;;;;;;;10.40;10.00;;;7.70;99.90;;;;;;5037272;28;20460;-66
2023/05/25 01:09:35;;;;;;;11.00;10.60;;;7.60;99.90;;;;;;5031893;28;20530;-66
2023/05/25 01:12:03;;;;;;;11.00;10.60;;;7.70;99.90;;;;;;5037538;28;20531;-67
2023/05/25 01:14:32;;;;;;;10.90;10.50;;;7.70;99.90;;;;;;5036169;28;20460;-67
2023/05/25 01:17:16;;;;;;;11.43;11.03;;;7.60;99.90;;;;;;5039774;28;20464;-68
2023/05/25 01:19:44;;;;;;;11.30;10.90;;;7.60;99.90;;;;;;5047552;28;20495;-67
2023/05/25 01:22:20;;;;;;;11.17;10.77;;;7.60;99.90;;;;;;5045389;28;20463;-67
2023/05/25 01:24:51;;;;;;;11.50;11.10;;;7.50;99.90;;;;;;5038018;28;20459;-67
2023/05/25 01:27:23;;;;;;;11.03;10.63;;;7.50;99.90;;;;;;5042969;28;20484;-66
2023/05/25 01:29:51;;;;;;;11.20;10.80;;;7.50;99.90;;;;;;5039110;28;20459;-68
2023/05/25 01:32:19;;;;;;;10.63;10.23;;;7.50;99.90;;;;;;5034834;28;20491;-66
2023/05/25 01:34:48;;;;;;;11.20;10.80;;;7.30;99.90;;;;;;5043309;28;20818;-67
2023/05/25 01:37:23;;;;;;;11.50;11.10;;;7.30;99.90;;;;;;5049513;28;20464;-67
2023/05/25 01:39:51;;;;;;;11.77;11.37;;;7.10;99.90;;;;;;5047710;28;20535;-67
2023/05/25 01:42:17;;;;;;;12.20;11.70;;;7.00;99.90;;;;;;5039147;28;20984;-67
2023/05/25 01:44:45;;;;;;;11.70;11.30;;;7.00;99.90;;;;;;5031730;28;20464;-67
2023/05/25 01:47:20;;;;;;;11.70;11.30;;;7.00;99.90;;;;;;5042281;28;20501;-66
2023/05/25 01:49:58;;;;;;;11.70;11.30;;;7.00;99.90;;;;;;5043225;28;21026;-67
2023/05/25 01:52:30;;;;;;;10.80;10.40;;;7.00;99.90;;;;;;5037994;28;20484;-66
2023/05/25 01:55:02;;;;;;;11.60;11.20;;;7.00;99.90;;;;;;5036978;28;20460;-67
2023/05/25 01:57:32;;;;;;;12.03;11.63;;;6.90;99.90;;;;;;5037712;28;20472;-66
2023/05/25 02:00:01;;;;;;;11.30;10.90;;;6.80;99.90;;;;;;5042715;28;20509;-67
2023/05/25 02:02:31;;;;;;;11.03;10.63;;;6.90;99.90;;;;;;5043582;28;20545;-66
2023/05/25 02:04:58;;;;;;;11.10;10.70;;;6.80;99.90;;;;;;5036117;28;20460;-67
2023/05/25 02:07:26;;;;;;;11.40;10.90;;;6.70;99.90;;;;;;5040157;28;20472;-66
2023/05/25 02:09:53;;;;;;;11.23;10.73;;;6.70;99.90;;;;;;5036833;28;20521;-67
2023/05/25 02:12:20;;;;;;;10.60;10.20;;;6.60;99.90;;;;;;5042607;28;20857;-67
2023/05/25 02:14:47;;;;;;;10.00;9.67;;;6.60;99.90;;;;;;5040764;28;20967;-66
2023/05/25 02:17:16;;;;;;;10.17;9.77;;;6.50;99.90;;;;;;5040382;28;20526;-67
2023/05/25 02:19:47;;;;;;;10.03;9.70;;;6.50;99.90;;;;;;5041245;28;20649;-66
2023/05/25 02:22:15;;;;;;;9.97;9.63;;;6.50;99.90;;;;;;5041988;28;20513;-66
2023/05/25 02:24:43;;;;;;;10.50;10.10;;;6.50;99.90;;;;;;5034865;28;21016;-68
2023/05/25 02:27:11;;;;;;;10.00;9.70;;;6.50;99.90;;;;;;5039485;28;20516;-68
2023/05/25 02:29:38;;;;;;;10.10;9.77;;;6.50;99.90;;;;;;5044319;28;20496;-67
2023/05/25 02:32:06;;;;;;;10.17;9.80;;;6.50;99.90;;;;;;5038664;28;22329;-67
2023/05/25 02:34:33;;;;;;;9.90;9.60;;;6.60;99.90;;;;;;5033296;28;20501;-67
2023/05/25 02:37:01;;;;;;;9.60;9.30;;;6.60;99.90;;;;;;5036408;28;20456;-68
2023/05/25 02:39:28;;;;;;;9.90;9.60;;;6.50;99.90;;;;;;5039617;28;20464;-67
2023/05/25 02:41:57;;;;;;;10.60;10.20;;;6.40;99.90;;;;;;5035789;28;20464;-67
2023/05/25 02:44:25;;;;;;;10.47;10.07;;;6.30;99.90;;;;;;5037588;28;20476;-68
2023/05/25 02:46:52;;;;;;;9.73;9.43;;;6.20;99.90;;;;;;5039395;28;20470;-67
2023/05/25 02:49:19;;;;;;;10.53;10.13;;;6.20;99.90;;;;;;5035037;28;20468;-67
2023/05/25 02:51:46;;;;;;;10.07;9.73;;;6.20;99.90;;;;;;5033352;28;20488;-66
2023/05/25 02:54:13;;;;;;;9.80;9.50;;;6.30;99.90;;;;;;5035062;28;20488;-68
2023/05/25 02:56:41;;;;;;;10.57;10.17;;;6.20;99.90;;;;;;5034808;28;20472;-67
2023/05/25 02:59:09;;;;;;;10.50;10.10;;;6.20;99.90;;;;;;5038885;28;20738;-68
2023/05/25 03:01:36;;;;;;;10.60;10.20;;;6.30;99.90;;;;;;5034516;28;20477;-67
2023/05/25 03:04:03;;;;;;;9.67;9.37;;;6.20;99.90;;;;;;5033856;28;20456;-67
2023/05/25 03:06:29;;;;;;;10.00;9.67;;;6.10;99.90;;;;;;5034349;28;20514;-67
2023/05/25 03:08:56;;;;;;;10.50;10.10;;;6.10;99.90;;;;;;5034938;28;20786;-66
2023/05/25 03:11:23;;;;;;;10.40;10.00;;;6.10;99.90;;;;;;5034037;28;20888;-67
2023/05/25 03:13:51;;;;;;;10.60;10.20;;;6.00;99.90;;;;;;5034844;28;20495;-67
2023/05/25 03:16:19;;;;;;;10.60;10.20;;;6.10;99.90;;;;;;5036810;28;20849;-66
2023/05/25 03:18:46;;;;;;;11.57;11.07;;;6.10;99.90;;;;;;5033167;28;20479;-67
2023/05/25 03:21:13;;;;;;;10.50;10.10;;;6.20;99.90;;;;;;5033976;28;20601;-67
2023/05/25 03:23:42;;;;;;;11.97;11.47;;;6.30;99.90;;;;;;5031249;28;21037;-67
2023/05/25 03:26:09;;;;;;;10.93;10.53;;;6.30;99.90;;;;;;5038502;28;21137;-67
2023/05/25 03:28:35;;;;;;;10.97;10.47;;;6.40;99.90;;;;;;5034452;28;20468;-67
2023/05/25 03:31:03;;;;;;;11.00;10.60;;;6.40;99.90;;;;;;5032120;28;20460;-67
2023/05/25 03:33:32;;;;;;;10.80;10.40;;;6.40;99.90;;;;;;5035002;28;20487;-68
2023/05/25 03:35:58;;;;;;;13.07;12.47;;;6.60;99.90;;;;;;5035693;28;20820;-67
2023/05/25 03:38:25;;;;;;;10.63;10.23;;;6.60;99.90;;;;;;5033846;28;20950;-67
2023/05/25 03:40:52;;;;;;;10.90;10.50;;;6.70;99.90;;;;;;5032667;28;20530;-68
2023/05/25 03:43:20;;;;;;;11.23;10.83;;;6.80;99.90;;;;;;5035382;28;20451;-67
2023/05/25 03:45:46;;;;;;;11.10;10.70;;;6.70;99.90;;;;;;5032912;28;20921;-68
2023/05/25 03:48:13;;;;;;;11.37;10.97;;;6.70;99.90;;;;;;5032252;28;20558;-67
2023/05/25 03:50:41;;;;;;;13.70;13.00;;;6.70;99.90;;;;;;5034366;28;20460;-68
2023/05/25 03:53:08;;;;;;;12.57;12.07;;;6.80;99.90;;;;;;5032727;28;20492;-68
2023/05/25 03:55:35;;;;;;;11.70;11.30;;;6.90;99.90;;;;;;5034790;28;21112;-68
2023/05/25 03:58:02;;;;;;;11.23;10.83;;;6.90;99.90;;;;;;5033094;28;20855;-67
2023/05/25 04:00:29;;;;;;;11.83;11.43;;;6.90;99.90;;;;;;5030667;28;20478;-68
2023/05/25 04:02:57;;;;;;;11.80;11.40;;;7.00;99.90;;;;;;5035541;28;20549;-67
2023/05/25 04:05:25;;;;;;;12.00;11.60;;;7.00;99.90;;;;;;5037240;28;20587;-68
2023/05/25 04:07:54;;;;;;;11.93;11.53;;;7.10;99.90;;;;;;5036204;28;20465;-67
2023/05/25 04:10:23;;;;;;;12.27;11.77;;;7.10;99.90;;;;;;5033167;28;20497;-68
2023/05/25 04:12:51;;;;;;;12.37;11.87;;;7.10;99.90;;;;;;5026828;28;20493;-68
2023/05/25 04:15:18;;;;;;;12.53;12.03;;;6.90;99.90;;;;;;5029740;28;20469;-67
2023/05/25 04:17:45;;;;;;;12.57;12.07;;;6.80;99.90;;;;;;5033669;28;20471;-67
2023/05/25 04:20:12;;;;;;;13.50;13.00;;;6.70;99.90;;;;;;5032484;28;21347;-68
2023/05/25 04:22:38;;;;;;;12.40;11.90;;;6.60;99.90;;;;;;5032316;28;20464;-66
2023/05/25 04:25:07;;;;;;;12.80;12.30;;;6.60;99.90;;;;;;5034902;28;20832;-69
2023/05/25 04:27:35;;;;;;;12.63;12.13;;;6.70;99.90;;;;;;5030399;28;20579;-68
2023/05/25 04:30:02;;;;;;;12.33;11.83;;;6.90;99.90;;;;;;5033318;28;20463;-68
2023/05/25 04:32:30;;;;;;;12.17;11.67;;;7.00;99.90;;;;;;5034159;28;20492;-68
2023/05/25 04:34:58;;;;;;;13.17;12.47;;;7.10;99.90;;;;;;5033227;28;20887;-67
2023/05/25 04:37:27;;;;;;;12.00;11.60;;;7.10;99.90;;;;;;5033018;28;20479;-67
2023/05/25 04:39:56;;;;;;;11.23;10.83;;;7.10;99.90;;;;;;5037223;28;20476;-67
2023/05/25 04:42:24;;;;;;;11.90;11.50;;;7.20;99.90;;;;;;5033600;28;20464;-68
2023/05/25 04:44:52;;;;;;;12.30;11.80;;;7.30;99.90;;;;;;5029886;28;20969;-68
2023/05/25 04:47:18;;;;;;;12.70;12.20;;;7.40;99.90;;;;;;5033939;28;20671;-69
2023/05/25 04:49:45;;;;;;;11.73;11.33;;;7.50;99.90;;;;;;5033245;28;20468;-67
2023/05/25 04:52:13;;;;;;;12.30;11.80;;;7.60;99.90;;;;;;5031881;28;20964;-68
2023/05/25 04:54:40;;;;;;;12.53;12.03;;;7.70;99.90;;;;;;5035251;28;20487;-67
2023/05/25 04:57:07;;;;;;;12.63;12.13;;;7.80;99.90;;;;;;5035429;28;20471;-68
2023/05/25 04:59:35;;;;;;;12.40;11.90;;;7.90;99.90;;;;;;5033085;28;20685;-68
2023/05/25 05:02:02;;;;;;;11.40;11.00;;;8.00;99.90;;;;;;5036000;28;20456;-68
2023/05/25 05:04:30;;;;;;;11.80;11.40;;;8.20;99.90;;;;;;5033750;28;20476;-68
2023/05/25 05:06:58;;;;;;;11.53;11.13;;;8.30;99.90;;;;;;5040323;28;20537;-68
2023/05/25 05:09:26;;;;;;;11.57;11.17;;;8.40;99.90;;;;;;5045286;28;20554;-68
2023/05/25 05:11:52;;;;;;;12.40;11.90;;;8.50;99.90;;;;;;5037781;28;20457;-68
2023/05/25 05:14:19;;;;;;;12.17;11.73;;;8.50;99.90;;;;;;5041956;28;20970;-68
2023/05/25 05:16:47;;;;;;;12.90;12.40;;;8.60;99.90;;;;;;5039547;28;20507;-68
2023/05/25 05:19:14;;;;;;;12.00;11.60;;;8.70;99.90;;;;;;5041233;28;20487;-68
2023/05/25 05:21:41;;;;;;;12.67;12.07;;;8.80;99.90;;;;;;5043456;28;20516;-68
2023/05/25 05:24:08;;;;;;;12.20;11.70;;;9.00;99.90;;;;;;5040964;28;20456;-68
2023/05/25 05:26:37;;;;;;;12.47;11.97;;;9.10;99.90;;;;;;5044526;28;20878;-68
2023/05/25 05:29:04;;;;;;;12.43;11.93;;;9.20;99.90;;;;;;5037834;28;20484;-68
2023/05/25 05:31:31;;;;;;;12.23;11.73;;;9.40;99.90;;;;;;5046640;28;20468;-68
2023/05/25 05:34:00;;;;;;;11.80;11.40;;;9.60;99.90;;;;;;5050983;28;20487;-68
2023/05/25 05:36:29;;;;;;;10.93;10.53;;;9.70;99.90;;;;;;5041607;28;20464;-68
2023/05/25 05:38:56;;;;;;;12.60;11.57;;;9.90;99.90;;;;;;5044261;28;20551;-68
2023/05/25 05:41:23;;;;;;;12.17;11.67;;;10.00;99.90;;;;;;5042149;28;20451;-67
2023/05/25 05:43:49;;;;;;;10.30;9.90;;;10.10;99.90;;;;;;5043223;28;20603;-69
2023/05/25 05:46:16;;;;;;;9.70;9.40;;;10.20;99.90;;;;;;5038238;28;20529;-68
2023/05/25 05:48:43;;;;;;;12.23;11.43;;;10.30;99.90;;;;;;5042167;28;20470;-69
2023/05/25 05:51:11;;;;;;;9.90;9.50;;;10.40;99.90;;;;;;5048231;28;20464;-68
2023/05/25 05:53:38;;;;;;;9.60;9.30;;;10.50;99.90;;;;;;5043789;28;20529;-68
2023/05/25 05:56:06;;;;;;;10.87;10.37;;;10.60;99.90;;;;;;5036002;28;20468;-67
2023/05/25 05:58:33;;;;;;;10.13;9.73;;;10.70;99.90;;;;;;5044839;28;20459;-68
2023/05/25 06:01:00;;;;;;;10.13;9.73;;;10.80;99.90;;;;;;5041066;28;20467;-68
2023/05/25 06:03:27;;;;;;;12.00;11.40;;;11.00;99.90;;;;;;5034440;28;20463;-69
2023/05/25 06:05:56;;;;;;;11.30;10.80;;;11.00;99.90;;;;;;5043723;28;20812;-69
2023/05/25 06:08:24;;;;;;;15.57;14.40;;;11.10;99.90;;;;;;5041317;28;20467;-68
2023/05/25 06:10:52;;;;;;;14.60;13.17;;;11.20;99.90;;;;;;5039710;28;20534;-68
2023/05/25 06:13:19;;;;;;;10.53;10.13;;;11.20;99.90;;;;;;5035036;28;20466;-69
2023/05/25 06:15:47;;;;;;;11.60;11.10;;;11.30;99.90;;;;;;5041929;28;20468;-69
2023/05/25 06:18:15;;;;;;;11.43;10.93;;;11.30;99.90;;;;;;5040658;28;21085;-69
2023/05/25 06:20:41;;;;;;;11.47;10.77;;;11.40;99.90;;;;;;5043550;28;20510;-69
2023/05/25 06:23:11;;;;;;;12.60;11.43;;;11.50;99.90;;;;;;5036022;28;20526;-68
2023/05/25 06:25:39;;;;;;;13.73;13.03;;;11.70;99.90;;;;;;5040653;28;20473;-69
2023/05/25 06:28:06;;;;;;;11.57;10.97;;;11.80;99.90;;;;;;5042553;28;20459;-68
2023/05/25 06:30:33;;;;;;;10.17;9.77;;;12.00;99.90;;;;;;5037838;28;20460;-69
2023/05/25 06:33:00;;;;;;;14.17;13.00;;;12.10;99.90;;;;;;5036447;28;20938;-69
2023/05/25 06:35:27;;;;;;;10.67;10.27;;;12.10;99.90;;;;;;5037115;28;20528;-69
2023/05/25 06:37:54;;;;;;;12.70;11.80;;;12.20;99.90;;;;;;5044638;28;20841;-68
2023/05/25 06:40:22;;;;;;;12.07;11.47;;;12.30;99.90;;;;;;5039734;28;20471;-68
2023/05/25 06:42:51;;;;;;;12.40;11.90;;;12.50;99.90;;;;;;5040184;28;20453;-69
2023/05/25 06:45:18;;;;;;;12.60;12.00;;;12.70;99.90;;;;;;5035269;28;23174;-68
2023/05/25 06:47:45;;;;;;;12.80;12.30;;;12.80;99.90;;;;;;5039779;28;20459;-68
2023/05/25 06:50:12;;;;;;;22.63;12.60;;;12.80;99.90;;;;;;5036335;28;20457;-68
2023/05/25 06:52:40;;;;;;;12.63;12.10;;;12.90;99.90;;;;;;5046247;28;20459;-68
2023/05/25 06:55:08;;;;;;;15.33;13.80;;;13.00;99.90;;;;;;5034795;28;20504;-68
2023/05/25 06:57:36;;;;;;;12.47;11.97;;;13.10;99.90;;;;;;5040273;28;20466;-68
2023/05/25 07:00:07;;;;;;;12.10;11.60;;;13.20;99.90;;;;;;5043467;28;20464;-68
2023/05/25 07:02:34;;;;;;;13.47;12.87;;;13.40;99.90;;;;;;5036558;28;20464;-67
2023/05/25 07:05:03;;;;;;;15.10;14.00;;;13.70;99.90;;;;;;5041016;28;20507;-67
2023/05/25 07:07:31;;;;;;;15.70;14.70;;;13.90;99.90;;;;;;5041294;28;20884;-67
2023/05/25 07:09:58;;;;;;;13.03;12.43;;;13.60;99.90;;;;;;5043212;28;20561;-68
2023/05/25 07:12:25;;;;;;;13.20;12.70;;;13.80;99.90;;;;;;5037741;28;20464;-69
2023/05/25 07:14:52;;;;;;;12.23;11.73;;;13.90;99.90;;;;;;5045836;28;20498;-66
2023/05/25 07:17:22;;;;;;;14.63;13.90;;;14.10;99.90;;;;;;5036018;28;20537;-67
2023/05/25 07:19:49;;;;;;;14.90;14.13;;;14.40;99.90;;;;;;5033007;28;20488;-68
2023/05/25 07:22:17;;;;;;;14.87;13.90;;;14.50;99.90;;;;;;5041724;28;20463;-68
2023/05/25 07:24:44;;;;;;;15.20;14.40;;;14.50;99.90;;;;;;5042484;28;20550;-68
2023/05/25 07:27:12;;;;;;;14.87;14.17;;;14.60;99.90;;;;;;5041311;28;20488;-66
2023/05/25 07:29:40;;;;;;;13.33;12.83;;;14.80;99.90;;;;;;5044173;28;20518;-69
2023/05/25 07:32:07;;;;;;;15.83;14.50;;;14.80;99.90;;;;;;5046700;28;20456;-67
2023/05/25 07:34:36;;;;;;;16.47;15.43;;;15.00;99.90;;;;;;5045417;28;20471;-68
2023/05/25 07:37:03;;;;;;;14.43;13.70;;;14.90;99.90;;;;;;5046156;28;20487;-68
2023/05/25 07:39:30;;;;;;;14.80;14.17;;;15.00;99.90;;;;;;5044287;28;20551;-67
2023/05/25 07:41:56;;;;;;;13.70;13.20;;;15.10;99.90;;;;;;5041339;28;20835;-68
2023/05/25 07:44:24;;;;;;;15.93;14.93;;;15.30;99.90;;;;;;5038686;28;20793;-67
2023/05/25 07:46:52;;;;;;;15.20;14.50;;;15.30;99.90;;;;;;5036068;28;20457;-68
2023/05/25 07:49:18;;;;;;;13.43;12.93;;;15.50;99.90;;;;;;5030745;28;20514;-67
2023/05/25 07:51:46;;;;;;;15.10;14.40;;;15.60;99.90;;;;;;5039529;28;20455;-67
2023/05/25 07:54:13;;;;;;;16.07;15.17;;;15.70;99.90;;;;;;5042639;28;20549;-68
2023/05/25 07:56:40;;;;;;;15.53;14.73;;;15.70;99.90;;;;;;5037278;28;20807;-68
2023/05/25 07:59:07;;;;;;;15.07;14.43;;;16.00;99.90;;;;;;5034611;28;20459;-67
2023/05/25 08:01:34;;;;;;;14.70;14.00;;;16.20;99.90;;;;;;5030734;28;20453;-68
2023/05/25 08:04:01;;;;;;;14.60;14.00;;;16.20;99.90;;;;;;5029569;28;20890;-68
2023/05/25 08:06:29;;;;;;;17.33;16.20;;;16.40;99.90;;;;;;5034782;28;20471;-66
2023/05/25 08:08:58;;;;;;;14.80;14.13;;;16.50;99.90;;;;;;5033569;28;20459;-67
2023/05/25 08:11:26;;;;;;;14.17;13.57;;;16.80;99.90;;;;;;5036172;28;20521;-68
2023/05/25 08:13:53;;;;;;;16.37;15.17;;;17.20;99.90;;;;;;5041298;28;20954;-68
2023/05/25 08:16:20;;;;;;;15.80;15.00;;;17.40;99.90;;;;;;5035691;28;20464;-67
2023/05/25 08:18:47;;;;;;;16.70;15.53;;;18.30;99.90;;;;;;5027970;28;20550;-67
2023/05/25 08:21:14;;;;;;;14.63;14.03;;;18.70;99.90;;;;;;5029670;28;20514;-67
2023/05/25 08:23:42;;;;;;;15.87;14.73;;;18.90;99.90;;;;;;5034836;28;20472;-67
2023/05/25 08:26:11;;;;;;;15.33;14.63;;;18.90;99.90;;;;;;5032268;28;21150;-67
2023/05/25 08:28:38;;;;;;;15.27;14.57;;;18.90;99.90;;;;;;5034631;28;20500;-67
2023/05/25 08:31:05;;;;;;;16.03;15.07;;;18.70;99.90;;;;;;5036696;28;20467;-66
2023/05/25 08:33:32;;;;;;;24.90;14.57;;;18.30;99.90;;;;;;5036485;28;20461;-67
2023/05/25 08:35:59;;;;;;;15.23;14.53;;;17.90;99.90;;;;;;5037996;28;20744;-68
2023/05/25 08:38:26;;;;;;;14.07;13.47;;;17.80;99.90;;;;;;5039232;28;20514;-68
2023/05/25 08:41:05;;;;;;;14.90;14.00;;;17.60;99.90;;;;;;5033261;28;20861;-67
2023/05/25 08:43:35;;;;;;;15.60;14.70;;;18.00;99.90;;;;;;5039626;28;20456;-67
2023/05/25 08:46:05;;;;;;;15.33;14.37;;;18.10;99.90;;;;;;5029310;28;20463;-68
2023/05/25 08:48:34;;;;;;;14.50;13.90;;;18.50;99.90;;;;;;5035985;28;20482;-67
2023/05/25 08:51:04;;;;;;;15.43;14.73;;;19.10;99.90;;;;;;5037244;28;20469;-66
2023/05/25 08:53:34;;;;;;;17.63;16.30;;;19.80;99.90;;;;;;5034706;28;20452;-67
2023/05/25 08:56:05;;;;;;;15.17;14.57;;;19.40;99.90;;;;;;5037654;28;20521;-67
2023/05/25 08:58:40;;;;;;;15.20;14.60;;;19.60;99.90;;;;;;5036204;28;20514;-66
2023/05/25 09:01:10;;;;;;;15.57;14.87;;;20.10;99.90;;;;;;5031819;28;20467;-68
2023/05/25 09:03:39;;;;;;;15.50;14.80;;;21.30;99.90;;;;;;5030389;28;20460;-66
2023/05/25 09:06:06;;;;;;;17.03;16.20;;;21.40;99.90;;;;;;5033579;28;20504;-66
2023/05/25 09:08:34;;;;;;;16.50;15.70;;;21.50;99.90;;;;;;5035340;28;20502;-67
2023/05/25 09:11:02;;;;;;;16.43;15.63;;;21.20;99.90;;;;;;5033848;28;20476;-66
2023/05/25 09:13:30;;;;;;;17.10;16.30;;;20.80;99.90;;;;;;5031466;28;20457;-67
2023/05/25 09:15:59;;;;;;;18.77;16.80;;;20.80;99.90;;;;;;5035544;28;20507;-66
2023/05/25 09:18:25;;;;;;;16.80;15.90;;;19.90;99.90;;;;;;5038227;28;20452;-68
2023/05/25 09:20:53;;;;;;;17.00;16.10;;;20.40;99.90;;;;;;5040939;28;20533;-66
2023/05/25 09:23:21;;;;;;;15.20;14.60;;;21.20;99.90;;;;;;5031586;28;20891;-68
2023/05/25 09:25:49;;;;;;;16.57;15.57;;;22.20;99.90;;;;;;5034656;28;20490;-68
2023/05/25 09:28:19;;;;;;;17.77;16.60;;;22.90;99.90;;;;;;5031053;28;20542;-65
2023/05/25 09:30:46;;;;;;;17.23;16.40;;;22.20;99.90;;;;;;5035515;28;20878;-66
2023/05/25 09:33:16;;;;;;;15.87;15.17;;;21.80;99.90;;;;;;5038499;28;20464;-66
2023/05/25 09:35:44;;;;;;;18.50;16.80;;;21.20;99.90;;;;;;5035957;28;21175;-66
2023/05/25 09:38:14;;;;;;;18.30;17.40;;;21.30;99.90;;;;;;5033101;28;21114;-66
2023/05/25 09:40:41;;;;;;;15.63;15.00;;;22.00;99.90;;;;;;5033291;28;20870;-67
2023/05/25 09:43:08;;;;;;;16.87;15.90;;;22.30;99.90;;;;;;5035275;28;21152;-68
2023/05/25 09:45:36;;;;;;;15.30;14.67;;;23.10;99.90;;;;;;5028529;28;20486;-66
2023/05/25 09:48:05;;;;;;;18.13;17.03;;;23.20;99.90;;;;;;5030287;28;20464;-66
2023/05/25 09:50:35;;;;;;;16.60;15.80;;;22.30;99.90;;;;;;5037284;28;20467;-66
2023/05/25 09:53:02;;;;;;;19.93;18.50;;;22.50;99.90;;;;;;5027984;28;20471;-66
2023/05/25 09:55:30;;;;;;;17.60;16.70;;;22.80;99.90;;;;;;5037220;28;20480;-66
2023/05/25 09:57:57;;;;;;;16.53;15.63;;;22.50;99.90;;;;;;5041427;28;20922;-66
2023/05/25 10:00:24;;;;;;;15.30;14.67;;;23.60;99.90;;;;;;5042033;28;20487;-67
2023/05/25 10:02:51;;;;;;;20.80;19.10;;;24.10;99.50;;;;;;5040938;28;20912;-66
2023/05/25 10:05:18;;;;;;;17.13;16.17;;;23.70;99.90;;;;;;5035106;28;21009;-65
2023/05/25 10:07:49;;;;;;;16.83;15.77;;;22.40;99.90;;;;;;5039903;28;20452;-65
2023/05/25 10:10:16;;;;;;;17.37;16.30;;;21.50;99.90;;;;;;5038878;28;20842;-65
2023/05/25 10:12:44;;;;;;;16.87;15.90;;;21.20;99.90;;;;;;5035604;28;20457;-65
2023/05/25 10:15:13;;;;;;;16.37;15.57;;;21.50;99.90;;;;;;5035326;28;20848;-65
2023/05/25 10:17:45;;;;;;;19.67;18.33;;;21.30;99.90;;;;;;5038741;28;20453;-65
2023/05/25 10:20:14;;;;;;;17.87;16.87;;;22.10;99.90;;;;;;5040020;28;20490;-67
2023/05/25 10:22:47;;;;;;;15.23;14.63;;;21.70;99.90;;;;;;5044416;28;20463;-66
2023/05/25 10:25:23;;;;;;;19.00;17.77;;;22.10;99.90;;;;;;5033505;28;20499;-66
2023/05/25 10:27:57;;;;;;;17.03;15.90;;;22.50;99.90;;;;;;5035888;28;20752;-67
2023/05/25 10:30:25;;;;;;;19.30;18.13;;;22.60;99.90;;;;;;5042728;28;20575;-66
2023/05/25 10:32:54;;;;;;;19.20;18.10;;;22.90;99.80;;;;;;5041337;28;20463;-65
2023/05/25 10:35:21;;;;;;;17.40;16.33;;;22.80;98.70;;;;;;5040721;28;20502;-66
2023/05/25 10:37:50;;;;;;;19.77;18.63;;;22.50;99.80;;;;;;5042421;28;20959;-65
2023/05/25 10:40:20;;;;;;;18.40;16.93;;;23.60;99.50;;;;;;5041425;28;20465;-66
2023/05/25 10:42:47;;;;;;;17.70;16.80;;;24.00;98.60;;;;;;5040466;28;20468;-66
2023/05/25 10:45:15;;;;;;;16.30;15.60;;;24.20;98.80;;;;;;5033137;28;20941;-66
2023/05/25 10:47:42;;;;;;;18.80;17.70;;;23.20;99.40;;;;;;5038311;28;21026;-66
2023/05/25 10:50:20;;;;;;;19.33;18.30;;;23.00;99.20;;;;;;5034739;28;20491;-66
2023/05/25 10:52:57;;;;;;;21.10;19.70;;;23.50;99.60;;;;;;5037758;28;20859;-65
2023/05/25 10:55:30;;;;;;;19.10;18.00;;;22.90;99.50;;;;;;5035091;28;20975;-66
2023/05/25 10:58:11;;;;;;;20.03;18.90;;;22.60;98.70;;;;;;5032889;28;20459;-66
2023/05/25 11:00:40;;;;;;;17.53;16.63;;;21.80;99.70;;;;;;5038856;28;20461;-67
2023/05/25 11:03:07;;;;;;;19.57;18.27;;;21.50;99.90;;;;;;5033554;28;20870;-66
2023/05/25 11:05:37;;;;;;;18.33;17.10;;;22.70;99.90;;;;;;5034410;28;20463;-67
2023/05/25 11:08:06;;;;;;;18.30;17.30;;;21.40;99.90;;;;;;5037116;28;20596;-66
2023/05/25 11:10:51;;;;;;;20.07;18.27;;;20.70;99.90;;;;;;5039108;28;20486;-66
2023/05/25 11:13:38;;;;;;;17.27;16.40;;;20.20;99.90;;;;;;5032280;28;20464;-66
2023/05/25 11:16:34;;;;;;;16.53;15.73;;;20.70;99.90;;;;;;5034538;28;20997;-67
2023/05/25 11:19:02;;;;;;;16.87;15.97;;;20.70;99.90;;;;;;5035205;28;20573;-66
2023/05/25 11:21:43;;;;;;;16.93;15.93;;;21.20;99.90;;;;;;5040369;28;20516;-66
2023/05/25 11:24:15;;;;;;;19.00;17.87;;;20.40;99.90;;;;;;5034307;28;20552;-67
2023/05/25 11:26:56;;;;;;;18.40;17.30;;;19.90;99.90;;;;;;5033033;28;20574;-66
2023/05/25 11:29:25;;;;;;;16.83;15.57;;;19.80;99.90;;;;;;5029559;28;20456;-66
2023/05/25 11:31:53;;;;;;;15.30;14.60;;;20.10;99.90;;;;;;5031649;28;20558;-65
2023/05/25 11:34:23;;;;;;;16.00;15.30;;;19.90;99.90;;;;;;5038035;28;20492;-66
2023/05/25 11:36:54;;;;;;;16.80;15.90;;;19.80;99.90;;;;;;5037782;28;20484;-67
2023/05/25 11:39:22;;;;;;;15.23;14.63;;;19.70;99.90;;;;;;5030131;28;20473;-66
2023/05/25 11:41:50;;;;;;;18.67;17.27;;;19.70;99.90;;;;;;5031216;28;20464;-66
2023/05/25 11:44:27;;;;;;;19.07;17.87;;;20.80;99.90;;;;;;5032540;28;20457;-66
2023/05/25 11:46:55;;;;;;;16.73;15.90;;;20.60;99.90;;;;;;5034842;28;20838;-67
2023/05/25 11:49:24;;;;;;;19.03;17.40;;;20.80;99.90;;;;;;5031188;28;20485;-66
2023/05/25 11:51:53;;;;;;;17.87;16.67;;;21.00;99.90;;;;;;5031074;28;20468;-66
2023/05/25 11:54:24;;;;;;;17.37;16.47;;;20.90;99.90;;;;;;5034210;28;20460;-66
2023/05/25 11:56:52;;;;;;;16.63;15.57;;;20.70;99.90;;;;;;5032668;28;21005;-66
2023/05/25 11:59:21;;;;;;;15.23;14.63;;;20.40;99.90;;;;;;5033527;28;20468;-65
2023/05/25 12:01:58;;;;;;;17.47;16.20;;;20.90;99.90;;;;;;5035634;28;20496;-66
2023/05/25 12:04:25;;;;;;;14.30;13.70;;;21.70;99.90;;;;;;5027826;28;20452;-66
2023/05/25 12:06:52;;;;;;;15.90;15.10;;;22.10;99.90;;;;;;5034723;28;21059;-67
2023/05/25 12:09:21;;;;;;;16.27;15.43;;;22.20;99.90;;;;;;5030578;28;20567;-67
2023/05/25 12:11:48;;;;;;;14.97;14.37;;;21.10;99.90;;;;;;5035157;28;20703;-65
2023/05/25 12:14:15;;;;;;;16.57;15.77;;;21.40;99.90;;;;;;5033700;28;20521;-67
2023/05/25 12:16:45;;;;;;;17.57;16.50;;;22.70;99.90;;;;;;5034263;28;20494;-66
2023/05/25 12:19:12;;;;;;;17.57;16.43;;;23.10;99.90;;;;;;5035648;28;20564;-66
2023/05/25 12:21:40;;;;;;;16.20;15.40;;;23.00;99.90;;;;;;5030053;28;20468;-67
2023/05/25 12:24:07;;;;;;;17.30;16.40;;;22.50;99.90;;;;;;5033878;28;20456;-67
2023/05/25 12:26:35;;;;;;;17.80;16.70;;;22.30;99.90;;;;;;5033932;28;20851;-67
2023/05/25 12:29:04;;;;;;;16.30;15.43;;;23.00;99.90;;;;;;5030690;28;20460;-67
2023/05/25 12:31:32;;;;;;;16.53;15.73;;;23.70;99.90;;;;;;5029853;28;20465;-66
2023/05/25 12:34:09;;;;;;;15.40;14.60;;;23.30;99.50;;;;;;5039797;28;20456;-67
2023/05/25 12:36:41;;;;;;;16.23;15.43;;;23.50;99.70;;;;;;5033825;28;20507;-67
2023/05/25 12:39:10;;;;;;;16.13;15.33;;;23.80;98.10;;;;;;5033218;28;20895;-67